createdAt,value
2022-09-27T00:00:07.909Z,13.53
2022-09-27T00:02:34.481Z,13.77
2022-09-27T00:05:00.993Z,13.20
2022-09-27T00:07:27.444Z,12.13
2022-09-27T00:09:53.873Z,12.07
2022-09-27T00:12:20.333Z,11.53
2022-09-27T00:14:46.790Z,12.20
2022-09-27T00:17:13.250Z,11.80
2022-09-27T00:19:39.702Z,11.30
2022-09-27T00:22:06.302Z,11.83
2022-09-27T00:24:32.876Z,12.63
2022-09-27T00:26:59.483Z,11.90
2022-09-27T00:29:26.099Z,10.90
2022-09-27T00:31:52.559Z,12.10
2022-09-27T00:34:24.129Z,11.70
2022-09-27T00:36:51.594Z,12.07
2022-09-27T00:39:18.360Z,11.67
2022-09-27T00:41:45.199Z,12.43
2022-09-27T00:44:27.040Z,12.30
2022-09-27T00:47:04.522Z,11.80
2022-09-27T00:49:54.450Z,11.43
2022-09-27T00:52:42.141Z,11.87
2022-09-27T00:55:15.777Z,11.90
2022-09-27T00:57:43.467Z,11.40
2022-09-27T01:00:12.023Z,11.23
2022-09-27T01:02:41.110Z,10.80
2022-09-27T01:05:08.389Z,10.83
2022-09-27T01:07:35.057Z,11.37
2022-09-27T01:10:01.897Z,10.87
2022-09-27T01:12:42.807Z,11.70
2022-09-27T01:15:16.109Z,11.67
2022-09-27T01:17:57.871Z,11.80
2022-09-27T01:20:52.308Z,10.57
2022-09-27T01:23:40.205Z,12.30
2022-09-27T01:26:09.614Z,10.83
2022-09-27T01:28:58.119Z,11.23
2022-09-27T01:31:39.728Z,11.17
2022-09-27T01:34:30.796Z,11.00
2022-09-27T01:37:09.427Z,11.07
2022-09-27T01:39:59.625Z,11.43
2022-09-27T01:42:31.496Z,10.70
2022-09-27T01:45:07.489Z,10.43
2022-09-27T01:47:44.870Z,10.10
2022-09-27T01:50:14.488Z,11.27
2022-09-27T01:52:51.304Z,10.00
2022-09-27T01:55:19.733Z,10.87
2022-09-27T01:57:58.138Z,10.13
2022-09-27T02:00:25.117Z,9.97
2022-09-27T02:03:22.086Z,11.40
2022-09-27T02:05:53.792Z,8.67
2022-09-27T02:08:32.059Z,9.13
2022-09-27T02:11:00.775Z,9.40
2022-09-27T02:13:43.021Z,8.33
2022-09-27T02:16:31.158Z,9.47
2022-09-27T02:19:17.656Z,9.47
2022-09-27T02:21:58.371Z,9.27
2022-09-27T02:24:32.411Z,8.57
2022-09-27T02:27:10.299Z,8.73
2022-09-27T02:29:50.973Z,9.00
2022-09-27T02:32:17.516Z,8.40
2022-09-27T02:34:45.056Z,8.07
2022-09-27T02:37:11.835Z,8.70
2022-09-27T02:39:38.564Z,9.20
2022-09-27T02:42:05.633Z,8.83
2022-09-27T02:44:32.322Z,8.70
2022-09-27T02:47:07.737Z,9.07
2022-09-27T02:50:02.218Z,8.20
2022-09-27T02:52:37.939Z,9.20
2022-09-27T02:55:20.715Z,9.87
2022-09-27T02:57:56.484Z,8.67
2022-09-27T03:00:30.399Z,8.37
2022-09-27T03:03:04.060Z,8.10
2022-09-27T03:05:35.013Z,8.80
2022-09-27T03:08:01.674Z,8.23
2022-09-27T03:10:29.044Z,6.83
2022-09-27T03:12:57.397Z,6.73
2022-09-27T03:15:24.239Z,7.73
2022-09-27T03:17:50.701Z,6.70
2022-09-27T03:20:18.003Z,6.97
2022-09-27T03:22:44.512Z,7.30
2022-09-27T03:25:11.517Z,7.00
2022-09-27T03:27:38.055Z,7.73
2022-09-27T03:30:06.335Z,7.07
2022-09-27T03:32:32.781Z,7.80
2022-09-27T03:34:59.266Z,7.70
2022-09-27T03:37:27.076Z,6.90
2022-09-27T03:39:53.580Z,7.37
2022-09-27T03:42:20.003Z,7.83
2022-09-27T03:44:46.445Z,7.20
2022-09-27T03:47:12.882Z,7.10
2022-09-27T03:49:39.336Z,6.90
2022-09-27T03:52:05.790Z,7.57
2022-09-27T03:54:32.742Z,8.23
2022-09-27T03:56:59.216Z,8.57
2022-09-27T03:59:25.668Z,7.40
2022-09-27T04:01:52.189Z,7.23
2022-09-27T04:04:18.807Z,8.17
2022-09-27T04:06:45.241Z,8.27
2022-09-27T04:09:11.755Z,9.60
2022-09-27T04:11:38.228Z,7.80
2022-09-27T04:14:05.731Z,9.13
2022-09-27T04:16:32.794Z,7.33
2022-09-27T04:18:59.421Z,8.17
2022-09-27T04:21:25.848Z,8.67
2022-09-27T04:23:52.285Z,8.77
2022-09-27T04:26:18.840Z,9.20
2022-09-27T04:28:48.836Z,8.47
2022-09-27T04:31:17.450Z,9.10
2022-09-27T04:33:44.010Z,9.17
2022-09-27T04:36:28.192Z,9.37
2022-09-27T04:39:02.771Z,10.83
2022-09-27T04:41:29.573Z,9.47
2022-09-27T04:43:59.223Z,9.67
2022-09-27T04:46:27.212Z,9.60
2022-09-27T04:48:53.732Z,11.43
2022-09-27T04:51:20.304Z,10.10
2022-09-27T04:53:47.648Z,9.60
2022-09-27T04:56:15.655Z,9.73
2022-09-27T04:58:42.130Z,11.23
2022-09-27T05:01:09.514Z,10.50
2022-09-27T05:03:36.380Z,12.20
2022-09-27T05:06:02.960Z,10.30
2022-09-27T05:08:29.517Z,10.90
2022-09-27T05:10:56.073Z,10.27
2022-09-27T05:13:23.240Z,10.53
2022-09-27T05:15:49.801Z,10.13
2022-09-27T05:18:17.417Z,10.77
2022-09-27T05:20:44.677Z,10.23
2022-09-27T05:23:11.301Z,11.60
2022-09-27T05:25:37.780Z,9.90
2022-09-27T05:28:05.242Z,11.13
2022-09-27T05:30:31.820Z,10.87
2022-09-27T05:32:58.403Z,10.57
2022-09-27T05:35:24.856Z,10.27
2022-09-27T05:37:56.814Z,12.40
2022-09-27T05:40:40.443Z,12.33
2022-09-27T05:43:07.572Z,13.93
2022-09-27T05:45:34.116Z,11.77
2022-09-27T05:48:00.649Z,12.80
2022-09-27T05:50:27.461Z,11.60
2022-09-27T05:52:54.178Z,11.60
2022-09-27T05:55:21.321Z,13.90
2022-09-27T05:58:01.900Z,12.63
2022-09-27T06:00:29.282Z,13.40
2022-09-27T06:02:57.287Z,11.83
2022-09-27T06:05:24.907Z,12.40
2022-09-27T06:07:51.793Z,12.33
2022-09-27T06:10:19.419Z,11.47
2022-09-27T06:12:46.636Z,13.67
2022-09-27T06:15:13.163Z,12.57
2022-09-27T06:17:39.665Z,13.80
2022-09-27T06:20:07.686Z,13.30
2022-09-27T06:22:34.177Z,13.60
2022-09-27T06:25:00.632Z,14.07
2022-09-27T06:27:27.138Z,14.27
2022-09-27T06:29:53.565Z,13.90
2022-09-27T06:32:20.102Z,14.53
2022-09-27T06:34:46.534Z,14.13
2022-09-27T06:37:13.133Z,14.53
2022-09-27T06:39:39.563Z,13.80
2022-09-27T06:42:06.789Z,14.27
2022-09-27T06:44:33.262Z,13.03
2022-09-27T06:46:59.698Z,17.77
2022-09-27T06:49:26.161Z,14.67
2022-09-27T06:51:53.765Z,12.43
2022-09-27T06:54:20.209Z,12.70
2022-09-27T06:56:49.779Z,10.57
2022-09-27T06:59:34.873Z,11.20
2022-09-27T07:02:01.917Z,17.53
2022-09-27T07:04:28.456Z,15.77
2022-09-27T07:06:55.212Z,14.20
2022-09-27T07:09:21.819Z,12.10
2022-09-27T07:11:48.486Z,9.80
2022-09-27T07:14:16.372Z,11.17
2022-09-27T07:16:43.632Z,8.47
2022-09-27T07:19:11.736Z,9.20
2022-09-27T07:21:38.159Z,8.43
2022-09-27T07:24:04.701Z,6.97
2022-09-27T07:26:31.237Z,6.40
2022-09-27T07:28:57.826Z,6.43
2022-09-27T07:31:24.328Z,5.03
2022-09-27T07:33:52.724Z,5.37
2022-09-27T07:36:19.227Z,5.50
2022-09-27T07:38:45.682Z,4.40
2022-09-27T07:41:14.217Z,3.80
2022-09-27T07:43:41.936Z,4.10
2022-09-27T07:46:08.457Z,3.33
2022-09-27T07:48:34.949Z,3.10
2022-09-27T07:51:01.446Z,2.83
2022-09-27T07:53:28.270Z,2.67
2022-09-27T07:55:54.916Z,2.63
2022-09-27T07:58:22.259Z,2.73
2022-09-27T08:00:48.827Z,2.40
2022-09-27T08:03:16.658Z,2.60
2022-09-27T08:05:44.514Z,2.13
2022-09-27T08:08:11.361Z,2.27
2022-09-27T08:10:39.871Z,2.90
2022-09-27T08:13:06.381Z,2.57
2022-09-27T08:15:33.853Z,2.90
2022-09-27T08:18:00.706Z,2.83
2022-09-27T08:20:27.195Z,2.93
2022-09-27T08:22:53.756Z,3.10
2022-09-27T08:25:22.544Z,3.67
2022-09-27T08:27:57.041Z,2.90
2022-09-27T08:30:24.216Z,2.93
2022-09-27T08:32:55.554Z,2.50
2022-09-27T08:35:22.355Z,3.43
2022-09-27T08:38:02.427Z,3.33
2022-09-27T08:40:44.929Z,3.23
2022-09-27T08:43:36.671Z,3.17
2022-09-27T08:46:21.308Z,3.00
2022-09-27T08:48:51.638Z,2.80
2022-09-27T08:51:21.670Z,3.17
2022-09-27T08:53:54.477Z,3.53
2022-09-27T08:56:21.567Z,3.00
2022-09-27T08:59:14.605Z,3.17
2022-09-27T09:01:41.431Z,3.27
2022-09-27T09:04:09.294Z,3.60
2022-09-27T09:06:58.725Z,3.80
2022-09-27T09:09:31.261Z,3.23
2022-09-27T09:12:41.477Z,3.63
2022-09-27T09:15:22.110Z,3.27
2022-09-27T09:17:54.653Z,2.93
2022-09-27T09:20:42.975Z,3.47
2022-09-27T09:23:28.099Z,3.50
2022-09-27T09:26:09.860Z,3.37
2022-09-27T09:28:51.654Z,3.30
2022-09-27T09:31:43.207Z,3.77
2022-09-27T09:34:36.088Z,3.10
2022-09-27T09:37:05.972Z,3.60
2022-09-27T09:39:50.634Z,4.03
2022-09-27T09:42:26.790Z,3.00
2022-09-27T09:45:02.736Z,3.17
2022-09-27T09:47:32.124Z,3.37
2022-09-27T09:50:01.566Z,3.20
2022-09-27T09:52:44.113Z,3.33
2022-09-27T09:55:23.198Z,2.90
2022-09-27T09:58:08.744Z,2.83
2022-09-27T10:00:35.197Z,3.10
2022-09-27T10:03:03.358Z,2.50
2022-09-27T10:05:29.921Z,2.10
2022-09-27T10:07:59.206Z,2.50
2022-09-27T10:10:25.879Z,2.23
2022-09-27T10:12:52.668Z,1.90
2022-09-27T10:15:21.856Z,2.30
2022-09-27T10:17:51.084Z,1.80
2022-09-27T10:20:34.316Z,2.07
2022-09-27T10:23:13.985Z,1.70
2022-09-27T10:25:49.901Z,1.67
2022-09-27T10:28:37.330Z,2.00
2022-09-27T10:31:06.427Z,1.80
2022-09-27T10:33:33.702Z,1.90
2022-09-27T10:36:01.270Z,1.90
2022-09-27T10:38:35.502Z,2.20
2022-09-27T10:41:51.424Z,2.40
2022-09-27T10:44:18.126Z,1.70
2022-09-27T10:46:46.618Z,2.00
2022-09-27T10:49:22.884Z,1.73
2022-09-27T10:51:55.276Z,1.83
2022-09-27T10:54:29.825Z,2.27
2022-09-27T10:57:16.315Z,1.40
2022-09-27T10:59:45.778Z,1.90
2022-09-27T11:02:24.683Z,2.03
2022-09-27T11:05:13.851Z,1.70
2022-09-27T11:07:53.457Z,2.17
2022-09-27T11:10:48.612Z,1.87
2022-09-27T11:13:17.587Z,1.93
2022-09-27T11:15:53.263Z,1.77
2022-09-27T11:18:38.417Z,2.00
2022-09-27T11:21:33.789Z,2.37
2022-09-27T11:24:12.448Z,2.10
2022-09-27T11:26:49.938Z,2.07
2022-09-27T11:29:45.314Z,1.80
2022-09-27T11:32:36.205Z,1.70
2022-09-27T11:35:10.744Z,1.77
2022-09-27T11:38:12.125Z,2.30
2022-09-27T11:41:00.461Z,1.90
2022-09-27T11:43:39.967Z,2.23
2022-09-27T11:46:41.735Z,2.30
2022-09-27T11:49:30.358Z,2.23
2022-09-27T11:52:18.576Z,2.30
2022-09-27T11:55:06.337Z,2.30
2022-09-27T11:57:36.014Z,2.10
2022-09-27T12:00:10.881Z,2.40
2022-09-27T12:03:15.106Z,2.07
2022-09-27T12:05:58.376Z,1.80
2022-09-27T12:08:38.893Z,1.77
2022-09-27T12:11:14.709Z,1.97
2022-09-27T12:13:44.679Z,2.23
2022-09-27T12:16:11.874Z,2.50
2022-09-27T12:18:39.460Z,2.20
2022-09-27T12:21:09.659Z,2.33
2022-09-27T12:23:45.898Z,3.27
2022-09-27T12:26:44.965Z,2.80
2022-09-27T12:29:20.864Z,2.30
2022-09-27T12:31:52.895Z,2.33
2022-09-27T12:34:57.183Z,2.10
2022-09-27T12:37:45.799Z,2.03
2022-09-27T12:40:20.525Z,2.23
2022-09-27T12:43:02.217Z,2.50
2022-09-27T12:45:37.651Z,2.77
2022-09-27T12:48:23.406Z,2.97
2022-09-27T12:50:53.854Z,3.00
2022-09-27T12:53:30.589Z,3.10
2022-09-27T12:55:59.634Z,2.87
2022-09-27T12:58:44.244Z,2.70
2022-09-27T13:01:26.210Z,2.60
2022-09-27T13:03:52.720Z,2.30
2022-09-27T13:06:22.101Z,2.57
2022-09-27T13:08:54.675Z,3.00
2022-09-27T13:11:39.438Z,2.30
2022-09-27T13:14:06.503Z,1.80
2022-09-27T13:16:44.817Z,1.83
2022-09-27T13:19:36.194Z,1.40
2022-09-27T13:22:04.916Z,1.70
2022-09-27T13:24:39.485Z,1.87
2022-09-27T13:27:27.780Z,1.50
2022-09-27T13:30:09.505Z,1.50
2022-09-27T13:32:36.572Z,1.30
2022-09-27T13:35:21.475Z,1.40
2022-09-27T13:37:52.966Z,1.43
2022-09-27T13:40:33.284Z,1.50
2022-09-27T13:43:13.186Z,1.23
2022-09-27T13:46:01.359Z,1.20
2022-09-27T13:48:47.830Z,1.30
2022-09-27T13:51:28.680Z,1.50
2022-09-27T13:54:10.588Z,1.40
2022-09-27T13:56:38.078Z,1.10
2022-09-27T13:59:10.882Z,1.47
2022-09-27T14:01:43.075Z,1.70
2022-09-27T14:04:29.764Z,1.73
2022-09-27T14:07:00.112Z,1.57
2022-09-27T14:09:30.419Z,1.47
2022-09-27T14:11:59.754Z,1.87
2022-09-27T14:14:29.235Z,1.30
2022-09-27T14:16:59.105Z,2.80
2022-09-27T14:19:26.130Z,3.90
2022-09-27T14:21:53.368Z,2.13
2022-09-27T14:24:30.253Z,3.00
2022-09-27T14:27:06.400Z,1.67
2022-09-27T14:29:40.888Z,1.77
2022-09-27T14:32:11.973Z,1.90
2022-09-27T14:34:39.700Z,1.43
2022-09-27T14:37:26.406Z,1.53
2022-09-27T14:39:54.493Z,1.63
2022-09-27T14:42:23.020Z,1.93
2022-09-27T14:44:50.129Z,1.80
2022-09-27T14:47:23.134Z,2.30
2022-09-27T14:49:54.741Z,2.17
2022-09-27T14:52:27.857Z,2.37
2022-09-27T14:55:05.897Z,2.40
2022-09-27T14:57:34.321Z,2.23
2022-09-27T15:00:05.138Z,2.30
2022-09-27T15:02:33.401Z,2.50
2022-09-27T15:04:59.950Z,2.10
2022-09-27T15:07:27.813Z,2.17
2022-09-27T15:09:54.364Z,1.90
2022-09-27T15:12:25.635Z,1.87
2022-09-27T15:14:54.325Z,2.10
2022-09-27T15:17:21.968Z,1.90
2022-09-27T15:20:20.070Z,2.20
2022-09-27T15:22:47.449Z,2.17
2022-09-27T15:25:34.762Z,2.40
2022-09-27T15:28:07.293Z,1.80
2022-09-27T15:30:42.243Z,2.00
2022-09-27T15:33:20.601Z,2.20
2022-09-27T15:35:50.904Z,2.97
2022-09-27T15:38:29.630Z,2.53
2022-09-27T15:41:04.111Z,2.70
2022-09-27T15:43:52.632Z,2.77
2022-09-27T15:46:22.455Z,2.50
2022-09-27T15:49:17.733Z,2.90
2022-09-27T15:51:49.119Z,3.27
2022-09-27T15:54:20.318Z,4.30
2022-09-27T15:56:51.208Z,4.50
2022-09-27T15:59:26.644Z,5.13
2022-09-27T16:01:58.790Z,5.17
2022-09-27T16:04:26.354Z,5.60
2022-09-27T16:06:56.081Z,4.30
2022-09-27T16:09:22.584Z,7.77
2022-09-27T16:11:50.171Z,3.43
2022-09-27T16:14:19.154Z,3.97
2022-09-27T16:16:47.034Z,4.23
2022-09-27T16:19:13.650Z,4.13
2022-09-27T16:21:42.789Z,4.27
2022-09-27T16:24:10.617Z,3.90
2022-09-27T16:26:37.761Z,4.27
2022-09-27T16:29:05.254Z,3.40
2022-09-27T16:31:31.776Z,4.00
2022-09-27T16:33:58.424Z,3.67
2022-09-27T16:36:24.916Z,3.93
2022-09-27T16:38:51.472Z,3.30
2022-09-27T16:41:20.010Z,3.70
2022-09-27T16:43:47.127Z,5.27
2022-09-27T16:46:16.011Z,5.00
2022-09-27T16:48:42.777Z,4.23
2022-09-27T16:51:37.136Z,4.27
2022-09-27T16:54:07.937Z,6.17
2022-09-27T16:56:35.337Z,6.10
2022-09-27T16:59:04.295Z,6.40
2022-09-27T17:01:31.533Z,4.30
2022-09-27T17:03:59.794Z,3.47
2022-09-27T17:06:28.831Z,4.53
2022-09-27T17:08:56.118Z,4.40
2022-09-27T17:11:23.471Z,4.80
2022-09-27T17:13:55.333Z,4.93
2022-09-27T17:16:25.458Z,4.53
2022-09-27T17:18:54.150Z,3.67
2022-09-27T17:21:28.115Z,3.37
2022-09-27T17:23:56.941Z,3.03
2022-09-27T17:26:24.621Z,4.73
2022-09-27T17:28:55.462Z,4.67
2022-09-27T17:31:22.392Z,4.33
2022-09-27T17:33:56.808Z,5.33
2022-09-27T17:36:27.426Z,4.77
2022-09-27T17:38:54.235Z,4.67
2022-09-27T17:41:24.192Z,3.57
2022-09-27T17:43:55.636Z,2.97
2022-09-27T17:46:24.426Z,4.23
2022-09-27T17:49:09.533Z,3.40
2022-09-27T17:51:38.376Z,3.40
2022-09-27T17:54:07.320Z,3.23
2022-09-27T17:56:38.239Z,3.17
2022-09-27T17:59:05.020Z,3.47
2022-09-27T18:01:32.238Z,3.37
2022-09-27T18:04:00.621Z,3.27
2022-09-27T18:06:28.116Z,3.23
2022-09-27T18:08:55.650Z,3.83
2022-09-27T18:11:28.523Z,4.07
2022-09-27T18:13:56.625Z,3.30
2022-09-27T18:16:29.545Z,3.43
2022-09-27T18:18:56.568Z,3.53
2022-09-27T18:21:23.724Z,4.17
2022-09-27T18:23:54.174Z,3.63
2022-09-27T18:26:24.024Z,4.40
2022-09-27T18:28:55.545Z,4.20
2022-09-27T18:31:23.039Z,5.57
2022-09-27T18:33:50.152Z,5.57
2022-09-27T18:36:25.023Z,5.00
2022-09-27T18:38:54.533Z,5.27
2022-09-27T18:41:22.459Z,3.63
2022-09-27T18:43:49.654Z,4.10
2022-09-27T18:46:35.107Z,4.47
2022-09-27T18:49:03.887Z,3.60
2022-09-27T18:51:30.938Z,3.70
2022-09-27T18:54:09.524Z,3.77
2022-09-27T18:56:39.192Z,4.20
2022-09-27T18:59:08.668Z,3.97
2022-09-27T19:01:39.492Z,4.00
2022-09-27T19:04:07.662Z,3.70
2022-09-27T19:06:34.246Z,3.20
2022-09-27T19:09:00.851Z,2.40
2022-09-27T19:11:27.652Z,2.27
2022-09-27T19:13:56.246Z,2.33
2022-09-27T19:16:23.873Z,3.20
2022-09-27T19:18:50.726Z,3.57
2022-09-27T19:21:22.316Z,3.37
2022-09-27T19:23:51.268Z,3.03
2022-09-27T19:26:21.298Z,3.17
2022-09-27T19:28:48.261Z,2.77
2022-09-27T19:31:20.302Z,3.00
2022-09-27T19:33:47.194Z,2.27
2022-09-27T19:36:16.049Z,1.87
2022-09-27T19:38:45.878Z,2.30
2022-09-27T19:41:16.101Z,2.00
2022-09-27T19:43:47.401Z,1.77
2022-09-27T19:46:15.920Z,1.90
2022-09-27T19:48:43.575Z,2.30
2022-09-27T19:51:23.833Z,1.90
2022-09-27T19:53:50.834Z,2.10
2022-09-27T19:56:17.634Z,2.00
2022-09-27T19:58:44.727Z,1.77
2022-09-27T20:01:16.162Z,1.70
2022-09-27T20:03:43.873Z,1.93
2022-09-27T20:06:12.640Z,1.67
2022-09-27T20:08:39.300Z,1.67
2022-09-27T20:11:07.008Z,1.93
2022-09-27T20:13:34.595Z,1.90
2022-09-27T20:16:06.950Z,2.10
2022-09-27T20:18:33.579Z,2.60
2022-09-27T20:21:04.209Z,2.90
2022-09-27T20:23:33.040Z,3.30
2022-09-27T20:26:09.918Z,3.33
2022-09-27T20:28:42.133Z,3.03
2022-09-27T20:31:10.706Z,3.00
2022-09-27T20:34:06.851Z,2.90
2022-09-27T20:36:36.854Z,2.30
2022-09-27T20:39:11.437Z,2.80
2022-09-27T20:41:42.816Z,2.63
2022-09-27T20:44:11.216Z,2.73
2022-09-27T20:46:39.069Z,2.87
2022-09-27T20:49:08.086Z,2.93
2022-09-27T20:51:36.172Z,3.20
2022-09-27T20:54:04.321Z,3.33
2022-09-27T20:56:35.340Z,3.17
2022-09-27T20:59:04.413Z,3.37
2022-09-27T21:01:31.413Z,2.67
2022-09-27T21:04:04.175Z,3.10
2022-09-27T21:06:32.514Z,2.50
2022-09-27T21:08:59.987Z,2.80
2022-09-27T21:11:27.218Z,2.50
2022-09-27T21:13:54.495Z,3.00
2022-09-27T21:16:23.737Z,2.87
2022-09-27T21:18:52.186Z,3.17
2022-09-27T21:21:21.840Z,3.20
2022-09-27T21:23:53.898Z,3.40
2022-09-27T21:26:21.816Z,3.03
2022-09-27T21:28:53.423Z,3.07
2022-09-27T21:31:23.359Z,3.27
2022-09-27T21:33:55.534Z,3.70
2022-09-27T21:36:32.872Z,4.13
2022-09-27T21:39:01.348Z,3.57
2022-09-27T21:41:28.564Z,3.67
2022-09-27T21:43:56.085Z,3.60
2022-09-27T21:46:24.969Z,3.57
2022-09-27T21:48:56.974Z,3.57
2022-09-27T21:51:28.976Z,3.80
2022-09-27T21:53:58.710Z,4.30
2022-09-27T21:56:26.672Z,3.57
2022-09-27T21:58:53.780Z,3.80
2022-09-27T22:01:22.728Z,3.40
2022-09-27T22:03:51.484Z,3.10
2022-09-27T22:06:25.065Z,2.90
2022-09-27T22:08:51.918Z,3.50
2022-09-27T22:11:22.693Z,3.10
2022-09-27T22:13:50.102Z,3.13
2022-09-27T22:16:18.105Z,3.33
2022-09-27T22:18:46.609Z,3.27
2022-09-27T22:21:22.551Z,3.30
2022-09-27T22:23:56.519Z,4.03
2022-09-27T22:26:25.081Z,3.67
2022-09-27T22:28:52.302Z,4.37
2022-09-27T22:31:20.650Z,4.60
2022-09-27T22:33:58.531Z,4.90
2022-09-27T22:36:25.602Z,4.93
2022-09-27T22:38:52.828Z,6.03
2022-09-27T22:41:20.267Z,5.73
2022-09-27T22:43:47.132Z,6.03
2022-09-27T22:46:13.677Z,6.07
2022-09-27T22:48:40.773Z,7.20
2022-09-27T22:51:08.001Z,6.90
2022-09-27T22:53:35.042Z,7.50
2022-09-27T22:56:04.791Z,8.10
2022-09-27T22:58:31.794Z,8.27
2022-09-27T23:00:58.441Z,8.50
2022-09-27T23:03:24.965Z,8.13
2022-09-27T23:05:51.474Z,8.53
2022-09-27T23:08:17.936Z,8.90
2022-09-27T23:10:44.432Z,9.00
2022-09-27T23:13:10.885Z,8.67
2022-09-27T23:15:37.361Z,9.40
2022-09-27T23:18:03.914Z,10.40
2022-09-27T23:20:30.377Z,11.13
2022-09-27T23:22:56.796Z,11.20
2022-09-27T23:25:23.331Z,12.27
2022-09-27T23:27:50.991Z,11.77
2022-09-27T23:30:19.640Z,12.37
2022-09-27T23:32:52.197Z,14.07
2022-09-27T23:35:18.806Z,13.73
2022-09-27T23:37:45.242Z,13.40
2022-09-27T23:40:12.298Z,12.83
2022-09-27T23:42:38.776Z,12.93
2022-09-27T23:45:05.704Z,12.67
2022-09-27T23:47:33.104Z,12.47
2022-09-27T23:49:59.548Z,12.80
2022-09-27T23:52:26.417Z,13.10
2022-09-27T23:54:53.173Z,12.70
2022-09-27T23:57:19.665Z,12.13
2022-09-27T23:59:46.103Z,14.97
